createdAt,value
2022-12-23T00:00:54.416Z,14.70
2022-12-23T00:03:23.940Z,13.03
2022-12-23T00:05:53.291Z,12.77
2022-12-23T00:08:26.009Z,12.40
2022-12-23T00:10:57.625Z,11.87
2022-12-23T00:13:44.103Z,11.83
2022-12-23T00:16:15.150Z,11.30
2022-12-23T00:18:44.395Z,11.47
2022-12-23T00:21:15.316Z,11.37
2022-12-23T00:23:47.727Z,10.87
2022-12-23T00:26:18.781Z,10.73
2022-12-23T00:28:47.408Z,11.17
2022-12-23T00:31:18.998Z,11.40
2022-12-23T00:33:50.041Z,11.83
2022-12-23T00:36:28.610Z,11.93
2022-12-23T00:39:17.790Z,11.57
2022-12-23T00:42:04.573Z,12.37
2022-12-23T00:44:33.569Z,11.70
2022-12-23T00:47:01.997Z,13.07
2022-12-23T00:49:44.443Z,13.30
2022-12-23T00:52:16.648Z,14.33
2022-12-23T00:54:46.827Z,14.00
2022-12-23T00:57:15.242Z,12.87
2022-12-23T00:59:43.663Z,13.33
2022-12-23T01:02:30.798Z,16.03
2022-12-23T01:05:16.915Z,15.17
2022-12-23T01:07:45.366Z,17.50
2022-12-23T01:10:15.366Z,17.80
2022-12-23T01:12:43.811Z,18.17
2022-12-23T01:15:12.532Z,18.33
2022-12-23T01:17:41.029Z,18.63
2022-12-23T01:20:11.695Z,20.20
2022-12-23T01:22:40.255Z,19.57
2022-12-23T01:25:09.324Z,19.03
2022-12-23T01:27:39.241Z,18.80
2022-12-23T01:30:12.154Z,19.20
2022-12-23T01:32:40.818Z,19.73
2022-12-23T01:35:09.781Z,19.07
2022-12-23T01:37:38.297Z,17.03
2022-12-23T01:40:08.518Z,17.47
2022-12-23T01:42:47.535Z,18.37
2022-12-23T01:45:19.619Z,18.30
2022-12-23T01:47:54.224Z,17.27
2022-12-23T01:50:32.578Z,17.63
2022-12-23T01:53:08.007Z,17.23
2022-12-23T01:55:42.338Z,17.27
2022-12-23T01:58:15.097Z,17.37
2022-12-23T02:01:01.405Z,18.33
2022-12-23T02:03:45.295Z,19.00
2022-12-23T02:06:37.489Z,19.47
2022-12-23T02:09:18.729Z,18.07
2022-12-23T02:12:21.511Z,18.33
2022-12-23T02:15:30.014Z,20.30
2022-12-23T02:18:07.673Z,19.23
2022-12-23T02:21:11.067Z,19.83
2022-12-23T02:24:14.904Z,18.53
2022-12-23T02:27:11.568Z,21.57
2022-12-23T02:30:17.393Z,21.50
2022-12-23T02:32:59.980Z,20.40
2022-12-23T02:35:34.183Z,20.70
2022-12-23T02:38:10.631Z,20.47
2022-12-23T02:40:50.806Z,21.50
2022-12-23T02:43:26.947Z,22.47
2022-12-23T02:46:01.124Z,22.13
2022-12-23T02:48:37.546Z,22.50
2022-12-23T02:51:08.765Z,23.57
2022-12-23T02:53:43.941Z,22.27
2022-12-23T02:56:15.363Z,21.80
2022-12-23T02:58:50.730Z,25.30
2022-12-23T03:01:20.789Z,26.13
2022-12-23T03:03:52.589Z,26.20
2022-12-23T03:06:26.519Z,25.90
2022-12-23T03:08:58.107Z,24.80
2022-12-23T03:11:40.322Z,24.47
2022-12-23T03:14:31.444Z,25.83
2022-12-23T03:17:09.230Z,25.90
2022-12-23T03:19:46.479Z,23.13
2022-12-23T03:22:21.271Z,24.73
2022-12-23T03:24:55.806Z,24.70
2022-12-23T03:27:32.218Z,24.53
2022-12-23T03:30:05.338Z,23.00
2022-12-23T03:32:38.084Z,24.87
2022-12-23T03:35:11.532Z,25.40
2022-12-23T03:37:46.014Z,24.50
2022-12-23T03:40:19.355Z,24.63
2022-12-23T03:42:52.126Z,25.90
2022-12-23T03:45:41.569Z,27.40
2022-12-23T03:48:16.369Z,23.90
2022-12-23T03:50:49.926Z,24.93
2022-12-23T03:53:23.289Z,24.60
2022-12-23T03:55:56.427Z,21.90
2022-12-23T03:58:33.721Z,22.17
2022-12-23T04:01:12.133Z,23.37
2022-12-23T04:03:50.210Z,22.87
2022-12-23T04:06:22.758Z,23.43
2022-12-23T04:08:52.301Z,22.73
2022-12-23T04:11:20.969Z,21.80
2022-12-23T04:13:49.940Z,22.97
2022-12-23T04:16:18.835Z,22.73
2022-12-23T04:18:47.175Z,24.53
2022-12-23T04:21:15.559Z,26.80
2022-12-23T04:23:45.562Z,25.30
2022-12-23T04:26:15.321Z,25.07
2022-12-23T04:28:43.757Z,24.83
2022-12-23T04:31:12.409Z,25.67
2022-12-23T04:33:41.103Z,24.87
2022-12-23T04:36:09.628Z,25.60
2022-12-23T04:38:38.001Z,26.80
2022-12-23T04:41:07.931Z,26.87
2022-12-23T04:43:39.246Z,25.97
2022-12-23T04:46:07.701Z,26.60
2022-12-23T04:48:37.373Z,25.27
2022-12-23T04:51:06.041Z,23.77
2022-12-23T04:53:36.858Z,25.20
2022-12-23T04:56:05.536Z,23.90
2022-12-23T04:58:35.562Z,25.43
2022-12-23T05:01:04.679Z,25.20
2022-12-23T05:03:33.578Z,25.20
2022-12-23T05:06:02.288Z,24.50
2022-12-23T05:08:31.278Z,24.87
2022-12-23T05:10:59.608Z,24.47
2022-12-23T05:13:28.535Z,25.83
2022-12-23T05:15:58.687Z,23.23
2022-12-23T05:18:27.396Z,22.87
2022-12-23T05:20:55.767Z,22.73
2022-12-23T05:23:24.153Z,22.17
2022-12-23T05:25:54.088Z,24.43
2022-12-23T05:28:23.058Z,23.17
2022-12-23T05:30:51.461Z,26.50
2022-12-23T05:33:21.687Z,26.50
2022-12-23T05:35:50.036Z,25.37
2022-12-23T05:38:18.496Z,25.07
2022-12-23T05:40:46.825Z,25.10
2022-12-23T05:43:16.083Z,25.07
2022-12-23T05:45:44.661Z,27.37
2022-12-23T05:48:14.480Z,25.77
2022-12-23T05:50:44.498Z,23.50
2022-12-23T05:53:13.428Z,25.30
2022-12-23T05:55:41.779Z,21.07
2022-12-23T05:58:10.407Z,23.07
2022-12-23T06:00:38.744Z,24.07
2022-12-23T06:03:07.251Z,23.57
2022-12-23T06:05:37.770Z,20.73
2022-12-23T06:08:07.840Z,21.90
2022-12-23T06:10:36.844Z,21.87
2022-12-23T06:13:05.288Z,21.73
2022-12-23T06:15:36.402Z,20.80
2022-12-23T06:18:05.127Z,20.57
2022-12-23T06:20:36.704Z,20.30
2022-12-23T06:23:06.586Z,21.00
2022-12-23T06:25:35.259Z,19.43
2022-12-23T06:28:03.710Z,20.67
2022-12-23T06:30:32.291Z,20.77
2022-12-23T06:33:00.832Z,21.77
2022-12-23T06:35:30.150Z,21.30
2022-12-23T06:37:58.789Z,19.67
2022-12-23T06:40:31.499Z,19.03
2022-12-23T06:42:59.980Z,22.73
2022-12-23T06:45:28.754Z,21.63
2022-12-23T06:47:57.556Z,22.03
2022-12-23T06:50:26.071Z,22.93
2022-12-23T06:52:54.451Z,21.87
2022-12-23T06:55:22.764Z,19.80
2022-12-23T06:57:52.674Z,19.63
2022-12-23T07:00:21.737Z,20.27
2022-12-23T07:02:50.265Z,20.23
2022-12-23T07:05:19.097Z,22.57
2022-12-23T07:07:47.450Z,23.60
2022-12-23T07:10:15.863Z,22.23
2022-12-23T07:12:50.401Z,23.17
2022-12-23T07:15:20.569Z,22.97
2022-12-23T07:17:49.049Z,22.27
2022-12-23T07:20:17.876Z,21.40
2022-12-23T07:22:46.296Z,22.23
2022-12-23T07:25:15.126Z,20.80
2022-12-23T07:27:43.653Z,20.90
2022-12-23T07:30:12.664Z,20.67
2022-12-23T07:32:42.621Z,21.30
2022-12-23T07:35:11.344Z,20.47
2022-12-23T07:37:39.889Z,21.93
2022-12-23T07:40:10.233Z,22.30
2022-12-23T07:42:45.591Z,19.60
2022-12-23T07:45:14.841Z,21.70
2022-12-23T07:47:44.940Z,22.07
2022-12-23T07:50:15.006Z,21.20
2022-12-23T07:52:43.487Z,20.43
2022-12-23T07:55:12.145Z,21.40
2022-12-23T07:57:41.112Z,22.13
2022-12-23T08:00:14.257Z,21.33
2022-12-23T08:02:45.277Z,21.80
2022-12-23T08:05:14.788Z,21.77
2022-12-23T08:07:45.101Z,22.60
2022-12-23T08:10:14.271Z,21.63
2022-12-23T08:12:43.231Z,20.93
2022-12-23T08:15:12.052Z,22.80
2022-12-23T08:17:40.640Z,23.53
2022-12-23T08:20:14.155Z,28.20
2022-12-23T08:22:42.766Z,24.67
2022-12-23T08:25:11.473Z,21.90
2022-12-23T08:27:40.316Z,23.70
2022-12-23T08:30:10.015Z,25.20
2022-12-23T08:32:38.497Z,27.30
2022-12-23T08:35:08.005Z,25.43
2022-12-23T08:37:38.614Z,27.30
2022-12-23T08:40:11.204Z,26.17
2022-12-23T08:42:39.845Z,26.67
2022-12-23T08:45:09.615Z,40.80
2022-12-23T08:47:38.149Z,28.37
2022-12-23T08:50:07.694Z,24.90
2022-12-23T08:52:37.518Z,26.40
2022-12-23T08:55:06.283Z,25.00
2022-12-23T08:57:36.169Z,24.00
2022-12-23T09:00:05.898Z,23.00
2022-12-23T09:02:34.568Z,28.20
2022-12-23T09:05:03.363Z,25.23
2022-12-23T09:07:32.614Z,22.60
2022-12-23T09:10:05.432Z,18.30
2022-12-23T09:12:34.388Z,17.27
2022-12-23T09:15:03.316Z,17.93
2022-12-23T09:17:32.301Z,17.90
2022-12-23T09:20:01.067Z,16.93
2022-12-23T09:22:30.077Z,20.80
2022-12-23T09:25:04.766Z,21.20
2022-12-23T09:27:35.381Z,34.10
2022-12-23T09:30:07.915Z,22.10
2022-12-23T09:32:39.123Z,20.17
2022-12-23T09:35:08.747Z,21.70
2022-12-23T09:37:37.900Z,21.13
2022-12-23T09:40:07.363Z,22.20
2022-12-23T09:42:55.712Z,19.03
2022-12-23T09:45:48.779Z,19.00
2022-12-23T09:48:21.233Z,18.30
2022-12-23T09:50:50.512Z,25.30
2022-12-23T09:53:21.885Z,21.97
2022-12-23T09:55:56.513Z,25.60
2022-12-23T09:58:32.206Z,27.90
2022-12-23T10:01:20.408Z,31.67
2022-12-23T10:04:30.704Z,32.17
2022-12-23T10:07:26.754Z,32.73
2022-12-23T10:09:57.911Z,33.20
2022-12-23T10:12:40.253Z,32.70
2022-12-23T10:15:22.067Z,32.17
2022-12-23T10:18:06.379Z,33.80
2022-12-23T10:20:47.164Z,31.83
2022-12-23T10:23:21.073Z,30.90
2022-12-23T10:25:52.832Z,34.20
2022-12-23T10:28:21.896Z,30.30
2022-12-23T10:31:39.228Z,34.83
2022-12-23T10:34:00.647Z,38.60
2022-12-23T10:36:42.106Z,39.53
2022-12-23T10:39:20.068Z,36.30
2022-12-23T10:42:00.261Z,36.60
2022-12-23T10:45:12.131Z,34.23
2022-12-23T10:47:59.997Z,32.17
2022-12-23T10:50:54.016Z,35.97
2022-12-23T10:53:35.710Z,34.37
2022-12-23T10:56:07.988Z,32.27
2022-12-23T10:58:45.771Z,31.73
2022-12-23T11:01:27.538Z,29.57
2022-12-23T11:04:07.951Z,30.93
2022-12-23T11:06:43.428Z,27.50
2022-12-23T11:09:18.916Z,28.63
2022-12-23T11:12:00.578Z,28.47
2022-12-23T11:14:35.148Z,26.87
2022-12-23T11:17:09.971Z,24.57
2022-12-23T11:19:40.872Z,27.57
2022-12-23T11:22:26.733Z,28.43
2022-12-23T11:24:55.489Z,28.20
2022-12-23T11:27:24.925Z,39.13
2022-12-23T11:29:56.523Z,36.77
2022-12-23T11:32:29.168Z,35.37
2022-12-23T11:34:59.944Z,29.60
2022-12-23T11:37:42.687Z,27.80
2022-12-23T11:40:34.783Z,28.17
2022-12-23T11:43:06.535Z,26.90
2022-12-23T11:45:39.035Z,25.83
2022-12-23T11:48:30.673Z,28.23
2022-12-23T11:51:05.365Z,26.33
2022-12-23T11:53:35.427Z,25.80
2022-12-23T11:56:09.865Z,24.80
2022-12-23T11:58:48.316Z,23.57
2022-12-23T12:01:20.568Z,24.17
2022-12-23T12:03:52.823Z,28.10
2022-12-23T12:06:24.425Z,26.97
2022-12-23T12:08:54.248Z,23.80
2022-12-23T12:11:28.159Z,25.30
2022-12-23T12:14:01.260Z,24.50
2022-12-23T12:16:50.310Z,23.37
2022-12-23T12:19:24.600Z,23.27
2022-12-23T12:22:00.817Z,26.23
2022-12-23T12:24:33.252Z,24.03
2022-12-23T12:27:06.519Z,23.27
2022-12-23T12:29:45.089Z,26.57
2022-12-23T12:32:20.840Z,26.13
2022-12-23T12:34:58.655Z,28.03
2022-12-23T12:37:37.675Z,26.27
2022-12-23T12:40:19.199Z,25.23
2022-12-23T12:42:54.827Z,24.83
2022-12-23T12:45:28.917Z,25.40
2022-12-23T12:48:18.899Z,28.50
2022-12-23T12:50:57.036Z,29.47
2022-12-23T12:53:33.687Z,28.57
2022-12-23T12:56:10.051Z,29.83
2022-12-23T12:58:40.378Z,30.03
2022-12-23T13:01:27.830Z,30.53
2022-12-23T13:04:37.892Z,28.73
2022-12-23T13:07:17.787Z,27.53
2022-12-23T13:10:02.091Z,29.27
2022-12-23T13:12:46.938Z,31.77
2022-12-23T13:15:23.950Z,31.50
2022-12-23T13:18:22.033Z,27.47
2022-12-23T13:21:10.510Z,29.10
2022-12-23T13:23:47.226Z,28.47
2022-12-23T13:26:26.875Z,28.53
2022-12-23T13:29:09.904Z,27.63
2022-12-23T13:31:49.169Z,28.53
2022-12-23T13:34:34.898Z,28.77
2022-12-23T13:37:17.333Z,28.27
2022-12-23T13:39:58.560Z,27.17
2022-12-23T13:42:37.397Z,27.30
2022-12-23T13:45:08.662Z,26.00
2022-12-23T13:47:50.657Z,31.80
2022-12-23T13:50:25.109Z,33.03
2022-12-23T13:53:28.917Z,40.27
2022-12-23T13:56:10.320Z,28.50
2022-12-23T13:58:48.071Z,25.67
2022-12-23T14:01:52.867Z,30.80
2022-12-23T14:04:58.865Z,25.33
2022-12-23T14:07:30.723Z,30.20
2022-12-23T14:10:14.002Z,30.27
2022-12-23T14:12:45.226Z,32.47
2022-12-23T14:15:50.031Z,29.83
2022-12-23T14:18:44.611Z,36.53
2022-12-23T14:21:22.753Z,24.30
2022-12-23T14:24:38.369Z,28.57
2022-12-23T14:27:36.873Z,22.23
2022-12-23T14:30:20.862Z,22.80
2022-12-23T14:32:53.374Z,21.30
2022-12-23T14:35:51.939Z,21.73
2022-12-23T14:39:07.722Z,20.10
2022-12-23T14:41:45.172Z,21.33
2022-12-23T14:44:44.392Z,18.60
2022-12-23T14:47:33.050Z,20.80
2022-12-23T14:54:14.933Z,17.90
2022-12-23T14:57:14.619Z,19.37
2022-12-23T14:59:53.794Z,16.87
2022-12-23T15:02:32.850Z,19.80
2022-12-23T15:05:09.430Z,21.27
2022-12-23T15:07:58.613Z,20.03
2022-12-23T15:10:31.255Z,20.50
2022-12-23T15:13:09.168Z,25.27
2022-12-23T15:15:38.700Z,22.70
2022-12-23T15:18:12.916Z,19.43
2022-12-23T15:20:42.013Z,18.80
2022-12-23T15:23:12.391Z,27.33
2022-12-23T15:25:47.441Z,37.93
2022-12-23T15:28:20.968Z,24.00
2022-12-23T15:30:56.812Z,19.83
2022-12-23T15:36:26.717Z,29.37
2022-12-23T15:38:55.649Z,23.23
2022-12-23T15:41:28.769Z,19.30
2022-12-23T15:44:04.208Z,17.00
2022-12-23T15:46:33.687Z,19.90
2022-12-23T15:49:03.551Z,18.50
2022-12-23T15:52:05.798Z,19.70
2022-12-23T15:54:31.106Z,28.03
2022-12-23T15:57:04.032Z,21.10
2022-12-23T15:59:43.909Z,15.83
2022-12-23T16:05:14.899Z,36.60
2022-12-23T16:07:46.333Z,24.30
2022-12-23T16:10:24.084Z,19.30
2022-12-23T16:13:02.186Z,20.77
2022-12-23T16:15:34.640Z,26.80
2022-12-23T16:18:22.203Z,23.43
2022-12-23T16:20:54.095Z,30.53
2022-12-23T16:23:23.440Z,30.03
2022-12-23T16:25:55.393Z,32.57
2022-12-23T16:28:50.636Z,32.83
2022-12-23T16:31:24.469Z,26.93
2022-12-23T16:33:58.535Z,23.30
2022-12-23T16:36:39.005Z,22.17
2022-12-23T16:39:22.068Z,21.33
2022-12-23T16:41:51.731Z,24.10
2022-12-23T16:44:28.812Z,22.77
2022-12-23T16:46:57.753Z,25.30
2022-12-23T16:49:35.785Z,24.17
2022-12-23T16:52:11.294Z,24.00
2022-12-23T16:54:44.611Z,26.37
2022-12-23T16:57:13.905Z,24.50
2022-12-23T16:59:44.183Z,24.57
2022-12-23T17:02:20.948Z,27.43
2022-12-23T17:04:52.420Z,26.80
2022-12-23T17:07:23.805Z,27.13
2022-12-23T17:09:52.774Z,26.60
2022-12-23T17:12:22.524Z,26.43
2022-12-23T17:14:52.691Z,27.77
2022-12-23T17:17:29.815Z,33.40
2022-12-23T17:19:59.303Z,29.63
2022-12-23T17:22:35.792Z,35.20
2022-12-23T17:25:05.617Z,30.40
2022-12-23T17:27:41.767Z,28.53
2022-12-23T17:30:24.469Z,30.50
2022-12-23T17:32:59.478Z,27.40
2022-12-23T17:35:39.928Z,29.60
2022-12-23T17:38:16.149Z,30.67
2022-12-23T17:40:47.875Z,33.83
2022-12-23T17:43:19.419Z,32.17
2022-12-23T17:45:49.560Z,33.47
2022-12-23T17:48:22.293Z,36.60
2022-12-23T17:50:54.252Z,34.77
2022-12-23T17:53:23.322Z,36.43
2022-12-23T17:55:52.090Z,34.67
2022-12-23T17:58:21.779Z,36.03
2022-12-23T18:00:53.908Z,31.93
2022-12-23T18:03:28.198Z,30.07
2022-12-23T18:06:01.509Z,30.47
2022-12-23T18:08:34.039Z,31.07
2022-12-23T18:11:05.948Z,30.50
2022-12-23T18:13:35.026Z,27.97
2022-12-23T18:16:07.113Z,29.83
2022-12-23T18:18:46.162Z,29.70
2022-12-23T18:21:25.897Z,29.07
2022-12-23T18:24:05.035Z,27.00
2022-12-23T18:26:34.097Z,26.83
2022-12-23T18:29:06.376Z,25.47
2022-12-23T18:31:50.553Z,27.83
2022-12-23T18:34:19.929Z,23.70
2022-12-23T18:36:56.591Z,23.43
2022-12-23T18:39:25.675Z,22.03
2022-12-23T18:41:57.005Z,22.03
2022-12-23T18:44:26.437Z,23.27
2022-12-23T18:46:59.878Z,25.57
2022-12-23T18:49:29.481Z,24.77
2022-12-23T18:52:01.141Z,25.83
2022-12-23T18:54:30.512Z,23.33
2022-12-23T18:57:04.815Z,23.70
2022-12-23T18:59:36.621Z,20.43
2022-12-23T19:02:08.477Z,21.50
2022-12-23T19:04:37.685Z,19.70
2022-12-23T19:07:07.390Z,17.23
2022-12-23T19:09:37.278Z,17.67
2022-12-23T19:12:07.020Z,19.13
2022-12-23T19:14:38.221Z,18.53
2022-12-23T19:17:12.784Z,19.57
2022-12-23T19:19:42.803Z,20.33
2022-12-23T19:22:11.509Z,20.10
2022-12-23T19:24:58.230Z,18.47
2022-12-23T19:27:45.299Z,18.50
2022-12-23T19:30:16.920Z,16.40
2022-12-23T19:32:47.603Z,16.80
2022-12-23T19:35:18.737Z,15.53
2022-12-23T19:37:50.931Z,16.73
2022-12-23T19:40:22.863Z,15.50
2022-12-23T19:42:54.030Z,14.50
2022-12-23T19:45:23.211Z,14.83
2022-12-23T19:47:55.250Z,13.60
2022-12-23T19:50:27.593Z,13.57
2022-12-23T19:52:56.723Z,12.43
2022-12-23T19:55:29.775Z,12.40
2022-12-23T19:57:58.922Z,12.00
2022-12-23T20:00:28.502Z,12.53
2022-12-23T20:02:59.861Z,14.73
2022-12-23T20:05:28.689Z,12.13
2022-12-23T20:08:13.155Z,12.17
2022-12-23T20:10:45.520Z,12.17
2022-12-23T20:13:16.475Z,10.87
2022-12-23T20:15:48.052Z,13.03
2022-12-23T20:18:18.137Z,11.77
2022-12-23T20:20:48.108Z,11.80
2022-12-23T20:23:17.444Z,11.00
2022-12-23T20:25:48.209Z,11.67
2022-12-23T20:28:20.348Z,10.43
2022-12-23T20:31:03.678Z,10.40
2022-12-23T20:33:36.649Z,11.13
2022-12-23T20:36:08.586Z,10.53
2022-12-23T20:38:43.026Z,11.20
2022-12-23T20:41:15.369Z,12.60
2022-12-23T20:43:52.517Z,13.87
2022-12-23T20:46:38.425Z,14.80
2022-12-23T20:49:15.195Z,13.17
2022-12-23T20:51:49.031Z,13.30
2022-12-23T20:54:27.875Z,11.37
2022-12-23T20:57:01.120Z,11.80
2022-12-23T20:59:31.098Z,12.07
2022-12-23T21:02:00.359Z,13.73
2022-12-23T21:04:33.339Z,11.93
2022-12-23T21:07:03.162Z,9.23
2022-12-23T21:09:32.236Z,9.63
2022-12-23T21:12:04.486Z,9.27
2022-12-23T21:14:34.153Z,9.50
2022-12-23T21:17:03.339Z,8.20
2022-12-23T21:19:39.125Z,8.17
2022-12-23T21:22:08.570Z,8.10
2022-12-23T21:24:37.909Z,8.10
2022-12-23T21:27:08.840Z,7.43
2022-12-23T21:29:43.545Z,8.80
2022-12-23T21:32:13.825Z,8.40
2022-12-23T21:34:53.936Z,8.37
2022-12-23T21:37:22.915Z,8.67
2022-12-23T21:39:52.009Z,9.67
2022-12-23T21:42:21.903Z,7.87
2022-12-23T21:44:53.439Z,7.77
2022-12-23T21:47:25.705Z,7.07
2022-12-23T21:49:58.364Z,8.50
2022-12-23T21:52:28.953Z,8.93
2022-12-23T21:55:03.446Z,8.63
2022-12-23T21:57:32.509Z,12.90
2022-12-23T22:00:06.574Z,9.47
2022-12-23T22:02:41.271Z,13.60
2022-12-23T22:05:12.366Z,11.20
2022-12-23T22:07:44.999Z,9.90
2022-12-23T22:10:13.780Z,10.73
2022-12-23T22:12:42.602Z,10.63
2022-12-23T22:15:13.140Z,10.77
2022-12-23T22:17:45.609Z,11.57
2022-12-23T22:20:19.065Z,12.17
2022-12-23T22:22:55.754Z,12.07
2022-12-23T22:25:27.691Z,11.60
2022-12-23T22:27:56.812Z,12.03
2022-12-23T22:30:28.122Z,11.30
2022-12-23T22:32:59.843Z,10.63
2022-12-23T22:35:35.986Z,11.23
2022-12-23T22:38:05.931Z,11.33
2022-12-23T22:40:37.194Z,11.30
2022-12-23T22:43:09.170Z,10.70
2022-12-23T22:45:52.283Z,11.70
2022-12-23T22:48:29.317Z,11.30
2022-12-23T22:51:11.450Z,10.50
2022-12-23T22:53:46.267Z,11.33
2022-12-23T22:56:26.386Z,11.13
2022-12-23T22:58:57.571Z,10.73
2022-12-23T23:01:29.575Z,10.77
2022-12-23T23:04:01.759Z,10.73
2022-12-23T23:06:33.463Z,11.13
2022-12-23T23:09:03.784Z,13.13
2022-12-23T23:11:45.722Z,11.03
2022-12-23T23:14:15.305Z,11.67
2022-12-23T23:16:59.773Z,11.73
2022-12-23T23:19:28.713Z,11.93
2022-12-23T23:22:00.733Z,11.97
2022-12-23T23:24:31.531Z,13.10
2022-12-23T23:27:08.041Z,12.17
2022-12-23T23:29:43.873Z,13.00
2022-12-23T23:32:14.635Z,13.00
2022-12-23T23:34:47.507Z,14.57
2022-12-23T23:37:27.377Z,13.93
2022-12-23T23:39:56.505Z,13.20
2022-12-23T23:42:27.965Z,13.33
2022-12-23T23:45:05.119Z,12.93
2022-12-23T23:47:35.344Z,13.80
2022-12-23T23:50:16.970Z,13.17
2022-12-23T23:52:51.369Z,13.60
2022-12-23T23:55:20.048Z,12.93
2022-12-23T23:57:50.190Z,12.57
